createdAt,value
2022-10-18T00:01:46.988Z,101265.66
2022-10-18T00:04:44.405Z,101277.44
2022-10-18T00:07:14.770Z,101265.66
2022-10-18T00:09:48.742Z,101264.59
2022-10-18T00:12:23.889Z,101267.41
2022-10-18T00:14:53.533Z,101278.13
2022-10-18T00:17:23.196Z,101268.38
2022-10-18T00:19:51.329Z,101268.38
2022-10-18T00:22:47.708Z,101272.03
2022-10-18T00:25:20.576Z,101267.81
2022-10-18T00:27:58.434Z,101273.06
2022-10-18T00:31:00.248Z,101259.78
2022-10-18T00:34:42.988Z,101268.13
2022-10-18T00:37:10.808Z,101263.91
2022-10-18T00:39:43.685Z,101259.84
2022-10-18T00:42:16.467Z,101253.38
2022-10-18T00:44:50.622Z,101253.38
2022-10-18T00:47:20.671Z,101248.50
2022-10-18T00:50:00.580Z,101245.31
2022-10-18T00:52:34.168Z,101250.19
2022-10-18T00:55:07.284Z,101247.94
2022-10-18T00:58:11.348Z,101251.53
2022-10-18T01:00:43.479Z,101246.69
2022-10-18T01:03:12.815Z,101242.75
2022-10-18T01:06:04.428Z,101250.25
2022-10-18T01:11:52.638Z,101237.13
2022-10-18T01:14:36.038Z,101243.81
2022-10-18T01:17:13.709Z,101251.97
2022-10-18T01:20:00.014Z,101239.59
2022-10-18T01:22:36.320Z,101237.88
2022-10-18T01:25:18.676Z,101236.91
2022-10-18T01:27:57.219Z,101228.44
2022-10-18T01:30:42.163Z,101228.28
2022-10-18T01:33:13.580Z,101225.06
2022-10-18T01:35:54.146Z,101230.25
2022-10-18T01:38:25.193Z,101230.94
2022-10-18T01:40:57.836Z,101227.72
2022-10-18T01:43:30.152Z,101231.72
2022-10-18T01:46:09.852Z,101223.81
2022-10-18T01:48:43.753Z,101222.38
2022-10-18T01:51:16.074Z,101221.84
2022-10-18T01:53:45.133Z,101220.41
2022-10-18T01:56:18.212Z,101215.91
2022-10-18T01:58:58.121Z,101225.50
2022-10-18T02:01:36.933Z,101224.81
2022-10-18T02:08:05.679Z,101215.44
2022-10-18T02:10:53.345Z,101217.38
2022-10-18T02:13:24.389Z,101213.47
2022-10-18T02:16:21.672Z,101213.00
2022-10-18T02:18:53.772Z,101217.91
2022-10-18T02:21:26.863Z,101210.41
2022-10-18T02:24:04.427Z,101205.09
2022-10-18T02:26:41.647Z,101208.00
2022-10-18T02:29:12.360Z,101202.50
2022-10-18T02:34:52.541Z,101205.56
2022-10-18T02:37:24.863Z,101201.19
2022-10-18T02:41:08.585Z,101199.78
2022-10-18T02:43:40.283Z,101205.31
2022-10-18T02:46:47.459Z,101201.91
2022-10-18T02:50:36.126Z,101191.66
2022-10-18T02:53:08.323Z,101201.22
2022-10-18T02:56:07.363Z,101195.41
2022-10-18T02:58:45.196Z,101201.41
2022-10-18T03:01:15.288Z,101201.75
2022-10-18T03:03:46.262Z,101206.31
2022-10-18T03:06:44.727Z,101195.31
2022-10-18T03:09:15.394Z,101191.22
2022-10-18T03:12:09.533Z,101193.06
2022-10-18T03:14:43.151Z,101197.75
2022-10-18T03:17:12.472Z,101190.50
2022-10-18T03:19:40.101Z,101192.28
2022-10-18T03:22:09.458Z,101199.59
2022-10-18T03:24:40.830Z,101202.34
2022-10-18T03:27:35.328Z,101202.66
2022-10-18T03:30:11.833Z,101203.03
2022-10-18T03:32:48.180Z,101192.28
2022-10-18T03:35:18.631Z,101198.13
2022-10-18T03:37:51.400Z,101203.31
2022-10-18T03:40:20.792Z,101204.31
2022-10-18T03:42:51.496Z,101204.03
2022-10-18T03:45:18.034Z,101212.41
2022-10-18T03:47:48.738Z,101210.63
2022-10-18T03:50:25.203Z,101216.03
2022-10-18T03:52:56.736Z,101202.41
2022-10-18T03:55:27.855Z,101205.16
2022-10-18T03:58:02.878Z,101213.06
2022-10-18T04:00:35.867Z,101208.06
2022-10-18T04:03:10.137Z,101207.06
2022-10-18T04:05:43.667Z,101209.84
2022-10-18T04:08:13.412Z,101211.16
2022-10-18T04:10:43.691Z,101212.78
2022-10-18T04:13:18.632Z,101197.38
2022-10-18T04:15:51.259Z,101205.44
2022-10-18T04:18:19.520Z,101196.41
2022-10-18T04:24:33.410Z,101202.84
2022-10-18T04:27:02.388Z,101203.66
2022-10-18T04:29:36.967Z,101204.34
2022-10-18T04:32:14.441Z,101205.16
2022-10-18T04:34:44.642Z,101200.47
2022-10-18T04:37:13.701Z,101200.13
2022-10-18T04:39:53.602Z,101193.16
2022-10-18T04:43:11.907Z,101186.34
2022-10-18T04:46:12.453Z,101188.63
2022-10-18T04:49:06.673Z,101188.78
2022-10-18T04:51:39.952Z,101186.84
2022-10-18T04:54:31.621Z,101176.47
2022-10-18T04:57:25.833Z,101171.16
2022-10-18T05:00:23.222Z,101176.63
2022-10-18T05:03:22.625Z,101175.81
2022-10-18T05:06:01.320Z,101176.16
2022-10-18T05:08:56.724Z,101177.13
2022-10-18T05:11:27.600Z,101175.50
2022-10-18T05:13:56.574Z,101175.66
2022-10-18T05:16:36.465Z,101182.47
2022-10-18T05:19:10.129Z,101181.50
2022-10-18T05:22:08.053Z,101185.38
2022-10-18T05:25:09.882Z,101178.56
2022-10-18T05:32:24.316Z,101179.69
2022-10-18T05:35:27.160Z,101183.09
2022-10-18T05:38:00.979Z,101181.63
2022-10-18T05:40:34.031Z,101186.47
2022-10-18T05:43:04.276Z,101188.09
2022-10-18T05:45:56.972Z,101186.44
2022-10-18T05:48:37.459Z,101183.19
2022-10-18T05:51:08.117Z,101196.38
2022-10-18T05:53:40.494Z,101202.72
2022-10-18T05:56:15.523Z,101190.53
2022-10-18T05:58:52.822Z,101198.50
2022-10-18T06:01:29.023Z,101199.06
2022-10-18T06:03:59.026Z,101192.63
2022-10-18T06:07:23.613Z,101192.81
2022-10-18T06:10:29.603Z,101204.41
2022-10-18T06:13:04.916Z,101198.25
2022-10-18T06:15:33.086Z,101200.75
2022-10-18T06:18:33.257Z,101211.34
2022-10-18T06:21:02.643Z,101204.41
2022-10-18T06:28:13.800Z,101200.34
2022-10-18T06:31:09.041Z,101199.47
2022-10-18T06:34:33.058Z,101200.41
2022-10-18T06:37:53.338Z,101207.66
2022-10-18T06:45:01.748Z,101207.59
2022-10-18T06:48:04.290Z,101203.78
2022-10-18T06:51:26.986Z,101209.97
2022-10-18T06:54:20.472Z,101209.59
2022-10-18T06:56:58.146Z,101202.00
2022-10-18T06:59:32.210Z,101199.38
2022-10-18T07:02:45.188Z,101207.41
2022-10-18T07:05:14.144Z,101215.25
2022-10-18T07:07:45.015Z,101220.69
2022-10-18T07:10:46.374Z,101211.41
2022-10-18T07:13:32.396Z,101222.50
2022-10-18T07:16:28.889Z,101226.72
2022-10-18T07:18:57.921Z,101216.06
2022-10-18T07:21:31.692Z,101216.47
2022-10-18T07:24:03.905Z,101206.97
2022-10-18T07:26:36.706Z,101212.44
2022-10-18T07:29:16.916Z,101209.94
2022-10-18T07:34:52.924Z,101205.06
2022-10-18T07:37:25.395Z,101208.69
2022-10-18T07:40:29.696Z,101209.03
2022-10-18T07:43:05.073Z,101213.09
2022-10-18T07:45:34.588Z,101197.75
2022-10-18T07:48:05.756Z,101204.91
2022-10-18T07:50:36.333Z,101190.69
2022-10-18T07:53:04.633Z,101207.03
2022-10-18T07:55:35.655Z,101204.34
2022-10-18T07:58:04.881Z,101202.25
2022-10-18T08:00:34.717Z,101199.56
2022-10-18T08:03:11.866Z,101204.94
2022-10-18T08:05:40.790Z,101201.88
2022-10-18T08:08:08.323Z,101202.38
2022-10-18T08:10:39.166Z,101194.81
2022-10-18T08:13:09.159Z,101194.56
2022-10-18T08:15:37.235Z,101189.34
2022-10-18T08:18:12.316Z,101192.44
2022-10-18T08:20:44.639Z,101188.44
2022-10-18T08:23:19.963Z,101193.34
2022-10-18T08:25:52.256Z,101189.88
2022-10-18T08:28:20.350Z,101187.31
2022-10-18T08:30:49.987Z,101178.31
2022-10-18T08:33:23.905Z,101174.91
2022-10-18T08:35:58.224Z,101175.63
2022-10-18T08:38:31.581Z,101179.88
2022-10-18T08:41:28.335Z,101182.81
2022-10-18T08:43:59.490Z,101167.38
2022-10-18T08:46:33.698Z,101163.97
2022-10-18T08:49:56.064Z,101164.44
2022-10-18T08:52:51.263Z,101153.06
2022-10-18T08:55:37.608Z,101155.81
2022-10-18T08:58:35.107Z,101155.66
2022-10-18T09:01:10.855Z,101147.25
2022-10-18T09:04:11.359Z,101138.63
2022-10-18T09:06:52.497Z,101141.25
2022-10-18T09:09:33.177Z,101139.41
2022-10-18T09:12:53.697Z,101130.34
2022-10-18T09:15:23.408Z,101129.78
2022-10-18T09:18:32.433Z,101136.84
2022-10-18T09:29:43.523Z,101118.53
2022-10-18T09:36:10.674Z,101121.84
2022-10-18T09:39:38.042Z,101108.78
2022-10-18T09:42:17.060Z,101114.44
2022-10-18T09:45:45.395Z,101105.22
2022-10-18T09:56:40.924Z,101099.47
2022-10-18T09:59:59.837Z,101094.00
2022-10-18T10:02:29.683Z,101102.09
2022-10-18T10:05:46.742Z,101086.91
2022-10-18T10:08:19.829Z,101074.16
2022-10-18T10:10:55.473Z,101081.63
2022-10-18T10:13:39.267Z,101072.59
2022-10-18T10:16:44.510Z,101069.09
2022-10-18T10:19:30.980Z,101062.81
2022-10-18T10:22:43.382Z,101065.94
2022-10-18T10:25:31.425Z,101070.88
2022-10-18T10:28:04.408Z,101064.81
2022-10-18T10:30:35.732Z,101055.78
2022-10-18T10:33:07.167Z,101061.72
2022-10-18T10:35:54.373Z,101053.94
2022-10-18T10:38:29.731Z,101051.91
2022-10-18T10:41:03.760Z,101041.72
2022-10-18T10:43:39.225Z,101044.00
2022-10-18T10:46:13.986Z,101040.38
2022-10-18T10:48:43.866Z,101035.22
2022-10-18T10:54:23.951Z,101032.22
2022-10-18T10:57:32.489Z,101036.59
2022-10-18T11:00:06.850Z,101039.22
2022-10-18T11:02:54.280Z,101030.19
2022-10-18T11:05:42.425Z,101027.56
2022-10-18T11:08:41.442Z,101028.72
2022-10-18T11:11:50.246Z,101019.88
2022-10-18T11:14:27.152Z,101013.22
2022-10-18T11:17:50.344Z,101016.41
2022-10-18T11:20:31.517Z,101003.97
2022-10-18T11:23:29.236Z,101003.63
2022-10-18T11:26:09.179Z,101000.00
2022-10-18T11:32:33.957Z,100996.66
2022-10-18T11:35:03.806Z,100992.97
2022-10-18T11:53:22.793Z,100979.28
2022-10-18T11:56:39.060Z,100971.38
2022-10-18T11:59:14.213Z,100962.69
2022-10-18T12:02:00.832Z,100966.66
2022-10-18T12:11:21.080Z,100959.56
2022-10-18T12:14:05.481Z,100955.78
2022-10-18T12:17:07.813Z,100953.41
2022-10-18T12:19:30.646Z,100931.88
2022-10-18T12:22:07.747Z,100930.25
2022-10-18T12:24:39.853Z,100928.75
2022-10-18T12:27:23.130Z,100926.91
2022-10-18T12:29:59.932Z,100919.38
2022-10-18T12:32:36.903Z,100909.97
2022-10-18T12:35:39.527Z,100911.94
2022-10-18T12:38:24.003Z,100917.97
2022-10-18T12:40:54.942Z,100904.03
2022-10-18T12:43:25.639Z,100897.94
2022-10-18T12:49:09.471Z,100890.03
2022-10-18T12:52:53.480Z,100895.03
2022-10-18T12:56:21.885Z,100902.16
2022-10-18T12:59:44.334Z,100902.97
2022-10-18T13:02:41.247Z,100896.66
2022-10-18T13:05:55.642Z,100890.38
2022-10-18T13:12:45.746Z,100890.38
2022-10-18T13:15:25.622Z,100891.97
2022-10-18T13:18:05.767Z,100882.28
2022-10-18T13:20:43.846Z,100881.22
2022-10-18T13:23:17.876Z,100880.97
2022-10-18T13:26:11.276Z,100876.25
2022-10-18T13:28:40.116Z,100861.53
2022-10-18T13:31:11.772Z,100857.81
2022-10-18T13:41:41.916Z,100857.69
2022-10-18T13:44:33.836Z,100858.16
2022-10-18T13:53:07.882Z,100833.41
2022-10-18T13:56:30.472Z,100841.09
2022-10-18T13:59:16.100Z,100830.56
2022-10-18T14:02:50.982Z,100833.19
2022-10-18T14:06:06.369Z,100832.16
2022-10-18T14:09:45.633Z,100824.25
2022-10-18T14:13:10.725Z,100811.09
2022-10-18T14:15:45.762Z,100815.56
2022-10-18T14:18:18.883Z,100812.34
2022-10-18T14:21:12.426Z,100816.84
2022-10-18T14:23:50.645Z,100819.94
2022-10-18T14:27:12.088Z,100816.19
2022-10-18T14:30:17.957Z,100814.03
2022-10-18T14:32:54.520Z,100810.31
2022-10-18T14:35:33.832Z,100811.56
2022-10-18T14:38:16.158Z,100809.41
2022-10-18T14:40:45.906Z,100803.84
2022-10-18T14:43:20.027Z,100809.59
2022-10-18T14:45:50.495Z,100804.56
2022-10-18T14:48:23.442Z,100805.81
2022-10-18T14:50:59.453Z,100796.56
2022-10-18T14:53:38.956Z,100802.63
2022-10-18T14:56:19.622Z,100799.47
2022-10-18T14:58:50.199Z,100791.00
2022-10-18T15:01:20.341Z,100793.63
2022-10-18T15:03:49.897Z,100793.06
2022-10-18T15:06:43.258Z,100800.41
2022-10-18T15:09:18.414Z,100792.44
2022-10-18T15:11:49.353Z,100795.78
2022-10-18T15:15:12.600Z,100787.56
2022-10-18T15:17:45.598Z,100794.34
2022-10-18T15:20:35.230Z,100796.16
2022-10-18T15:23:24.106Z,100792.41
2022-10-18T15:26:06.472Z,100792.56
2022-10-18T15:28:51.530Z,100795.19
2022-10-18T15:31:30.154Z,100786.16
2022-10-18T15:34:29.129Z,100791.09
2022-10-18T15:37:32.679Z,100778.34
2022-10-18T15:40:31.856Z,100780.88
2022-10-18T15:43:07.424Z,100778.94
2022-10-18T15:45:40.396Z,100775.91
2022-10-18T15:48:18.071Z,100769.19
2022-10-18T15:51:06.624Z,100771.38
2022-10-18T15:54:00.761Z,100763.06
2022-10-18T15:56:36.221Z,100761.59
2022-10-18T15:59:21.334Z,100763.31
2022-10-18T16:02:47.898Z,100761.41
2022-10-18T16:12:58.481Z,100784.72
2022-10-18T16:15:29.002Z,100777.75
2022-10-18T16:17:55.551Z,100779.13
2022-10-18T16:23:23.820Z,100779.81
2022-10-18T16:25:54.316Z,100775.66
2022-10-18T16:28:24.883Z,100775.00
2022-10-18T16:30:59.472Z,100776.69
2022-10-18T16:33:35.673Z,100783.44
2022-10-18T16:36:18.576Z,100786.38
2022-10-18T16:38:49.644Z,100778.41
2022-10-18T16:41:20.432Z,100774.50
2022-10-18T16:43:53.112Z,100779.75
2022-10-18T16:46:25.713Z,100789.28
2022-10-18T16:48:53.986Z,100792.00
2022-10-18T16:51:26.922Z,100790.25
2022-10-18T16:54:20.561Z,100790.09
2022-10-18T16:56:50.136Z,100795.22
2022-10-18T16:59:45.656Z,100794.06
2022-10-18T17:02:14.596Z,100801.22
2022-10-18T17:05:24.860Z,100804.72
2022-10-18T17:08:02.120Z,100803.31
2022-10-18T17:10:34.297Z,100801.38
2022-10-18T17:13:07.636Z,100801.00
2022-10-18T17:15:37.822Z,100797.03
2022-10-18T17:18:35.061Z,100789.38
2022-10-18T17:21:04.469Z,100790.84
2022-10-18T17:23:40.149Z,100793.31
2022-10-18T17:26:42.576Z,100791.91
2022-10-18T17:29:12.100Z,100790.91
2022-10-18T17:31:45.501Z,100789.09
2022-10-18T17:34:21.380Z,100783.38
2022-10-18T17:36:54.512Z,100778.38
2022-10-18T17:39:51.165Z,100773.72
2022-10-18T17:42:27.421Z,100776.94
2022-10-18T17:45:01.028Z,100773.28
2022-10-18T17:47:32.051Z,100780.13
2022-10-18T17:50:02.232Z,100778.09
2022-10-18T17:56:19.718Z,100776.06
2022-10-18T17:58:53.486Z,100779.25
2022-10-18T18:01:28.553Z,100774.00
2022-10-18T18:04:04.889Z,100772.19
2022-10-18T18:06:39.103Z,100758.16
2022-10-18T18:09:17.933Z,100768.31
2022-10-18T18:11:51.510Z,100765.50
2022-10-18T18:14:45.565Z,100759.69
2022-10-18T18:17:33.771Z,100753.84
2022-10-18T18:20:36.739Z,100759.88
2022-10-18T18:23:05.239Z,100758.16
2022-10-18T18:25:38.993Z,100752.75
2022-10-18T18:28:08.377Z,100747.59
2022-10-18T18:31:11.199Z,100745.63
2022-10-18T18:33:48.309Z,100757.78
2022-10-18T18:37:09.486Z,100747.59
2022-10-18T18:43:23.024Z,100742.38
2022-10-18T18:46:59.255Z,100744.84
2022-10-18T18:50:02.480Z,100757.59
2022-10-18T18:52:40.241Z,100756.06
2022-10-18T18:55:12.138Z,100756.72
2022-10-18T18:57:46.250Z,100753.69
2022-10-18T19:00:17.879Z,100753.94
2022-10-18T19:02:48.175Z,100751.72
2022-10-18T19:06:01.935Z,100750.75
2022-10-18T19:08:37.927Z,100751.19
2022-10-18T19:11:09.294Z,100744.56
2022-10-18T19:13:40.642Z,100747.44
2022-10-18T19:16:10.361Z,100741.59
2022-10-18T19:18:42.063Z,100741.22
2022-10-18T19:21:10.892Z,100748.69
2022-10-18T19:23:42.422Z,100753.34
2022-10-18T19:26:14.156Z,100739.72
2022-10-18T19:28:44.011Z,100750.56
2022-10-18T19:31:12.236Z,100752.56
2022-10-18T19:33:48.186Z,100754.59
2022-10-18T19:36:25.772Z,100753.22
2022-10-18T19:38:59.219Z,100747.78
2022-10-18T19:41:30.257Z,100750.75
2022-10-18T19:44:28.251Z,100751.56
2022-10-18T19:46:59.406Z,100743.28
2022-10-18T19:49:30.582Z,100746.06
2022-10-18T19:51:58.607Z,100748.81
2022-10-18T19:54:30.996Z,100756.09
2022-10-18T19:57:34.390Z,100749.25
2022-10-18T20:00:34.288Z,100746.84
2022-10-18T20:03:12.474Z,100735.19
2022-10-18T20:06:32.182Z,100733.59
2022-10-18T20:09:06.161Z,100732.78
2022-10-18T20:12:07.768Z,100734.81
2022-10-18T20:15:27.891Z,100736.44
2022-10-18T20:17:58.159Z,100743.13
2022-10-18T20:20:29.763Z,100740.94
2022-10-18T20:22:58.070Z,100737.16
2022-10-18T20:25:30.834Z,100740.19
2022-10-18T20:28:22.954Z,100731.75
2022-10-18T20:31:07.911Z,100728.16
2022-10-18T20:33:39.999Z,100722.56
2022-10-18T20:36:32.834Z,100728.22
2022-10-18T20:39:06.674Z,100726.22
2022-10-18T20:41:46.990Z,100732.88
2022-10-18T20:44:19.336Z,100736.09
2022-10-18T20:47:22.173Z,100736.31
2022-10-18T20:58:11.382Z,100729.13
2022-10-18T21:00:45.022Z,100725.50
2022-10-18T21:07:04.330Z,100728.69
2022-10-18T21:09:41.400Z,100723.84
2022-10-18T21:12:16.080Z,100720.41
2022-10-18T21:14:47.059Z,100721.56
2022-10-18T21:17:19.537Z,100731.84
2022-10-18T21:23:55.719Z,100719.53
2022-10-18T21:38:47.415Z,100722.59
2022-10-18T21:41:18.465Z,100730.00
2022-10-18T21:43:57.234Z,100711.44
2022-10-18T21:46:28.670Z,100703.72
2022-10-18T21:48:59.292Z,100718.72
2022-10-18T21:51:28.443Z,100712.63
2022-10-18T21:53:58.790Z,100710.31
2022-10-18T21:56:28.291Z,100697.34
2022-10-18T21:58:58.968Z,100695.69
2022-10-18T22:01:32.407Z,100679.31
2022-10-18T22:04:03.794Z,100688.91
2022-10-18T22:09:09.293Z,100706.97
2022-10-18T22:11:45.282Z,100706.97
2022-10-18T22:14:20.822Z,100710.56
2022-10-18T22:16:49.685Z,100699.69
2022-10-18T22:19:23.280Z,100703.31
2022-10-18T22:21:52.994Z,100708.97
2022-10-18T22:24:21.274Z,100705.50
2022-10-18T22:26:53.334Z,100694.31
2022-10-18T22:29:21.964Z,100699.59
2022-10-18T22:31:54.502Z,100701.72
2022-10-18T22:34:29.779Z,100707.00
2022-10-18T22:37:58.501Z,100718.00
2022-10-18T22:40:56.197Z,100714.19
2022-10-18T22:43:30.131Z,100724.72
2022-10-18T22:46:05.637Z,100723.75
2022-10-18T22:48:37.767Z,100729.81
2022-10-18T22:51:14.845Z,100725.47
2022-10-18T22:53:55.982Z,100733.59
2022-10-18T22:56:51.178Z,100732.81
2022-10-18T22:59:43.949Z,100733.25
2022-10-18T23:10:11.912Z,100735.19
2022-10-18T23:12:47.660Z,100730.13
2022-10-18T23:15:52.975Z,100732.69
2022-10-18T23:18:21.797Z,100737.50
2022-10-18T23:21:07.222Z,100727.03
2022-10-18T23:23:59.009Z,100732.44
2022-10-18T23:27:24.184Z,100734.25
2022-10-18T23:35:15.767Z,100736.63
2022-10-18T23:37:43.656Z,100739.03
2022-10-18T23:40:16.087Z,100747.06
2022-10-18T23:42:51.264Z,100727.69
2022-10-18T23:45:20.633Z,100732.94
2022-10-18T23:47:50.386Z,100732.50
2022-10-18T23:50:17.384Z,100731.66
2022-10-18T23:52:51.881Z,100737.25
2022-10-18T23:55:23.587Z,100739.19
